sensor_id;sensor_type;location;lat;lon;timestamp;temperature;humidity
24446;DHT22;13347;50.984;5.822;2023-05-10T00:01:13;13.40;99.90
24446;DHT22;13347;50.984;5.822;2023-05-10T00:03:40;13.40;99.90
24446;DHT22;13347;50.984;5.822;2023-05-10T00:06:07;13.40;99.90
24446;DHT22;13347;50.984;5.822;2023-05-10T00:08:33;13.40;99.90
24446;DHT22;13347;50.984;5.822;2023-05-10T00:11:00;13.30;99.90
24446;DHT22;13347;50.984;5.822;2023-05-10T00:13:27;13.30;99.90
24446;DHT22;13347;50.984;5.822;2023-05-10T00:15:55;13.30;99.90
24446;DHT22;13347;50.984;5.822;2023-05-10T00:18:22;13.30;99.90
24446;DHT22;13347;50.984;5.822;2023-05-10T00:20:49;13.30;99.90
24446;DHT22;13347;50.984;5.822;2023-05-10T00:23:16;13.30;99.90
24446;DHT22;13347;50.984;5.822;2023-05-10T00:25:43;13.30;99.90
24446;DHT22;13347;50.984;5.822;2023-05-10T00:28:10;13.30;99.90
24446;DHT22;13347;50.984;5.822;2023-05-10T00:30:37;13.30;99.90
24446;DHT22;13347;50.984;5.822;2023-05-10T00:33:05;13.40;99.90
24446;DHT22;13347;50.984;5.822;2023-05-10T00:35:32;13.30;99.90
24446;DHT22;13347;50.984;5.822;2023-05-10T00:37:59;13.30;99.90
24446;DHT22;13347;50.984;5.822;2023-05-10T00:40:26;13.30;99.90
24446;DHT22;13347;50.984;5.822;2023-05-10T00:42:54;13.30;99.90
24446;DHT22;13347;50.984;5.822;2023-05-10T00:45:21;13.30;99.90
24446;DHT22;13347;50.984;5.822;2023-05-10T00:47:47;13.20;99.90
24446;DHT22;13347;50.984;5.822;2023-05-10T00:50:16;13.30;99.90
24446;DHT22;13347;50.984;5.822;2023-05-10T00:52:43;13.30;99.90
24446;DHT22;13347;50.984;5.822;2023-05-10T00:55:10;13.40;99.90
24446;DHT22;13347;50.984;5.822;2023-05-10T00:57:38;13.40;99.90
24446;DHT22;13347;50.984;5.822;2023-05-10T01:00:05;13.40;99.90
24446;DHT22;13347;50.984;5.822;2023-05-10T01:02:33;13.40;99.90
24446;DHT22;13347;50.984;5.822;2023-05-10T01:05:00;13.30;99.90
24446;DHT22;13347;50.984;5.822;2023-05-10T01:07:30;13.40;99.90
24446;DHT22;13347;50.984;5.822;2023-05-10T01:09:57;13.40;99.90
24446;DHT22;13347;50.984;5.822;2023-05-10T01:12:24;13.40;99.90
24446;DHT22;13347;50.984;5.822;2023-05-10T01:14:51;13.50;99.90
24446;DHT22;13347;50.984;5.822;2023-05-10T01:17:18;13.50;99.90
24446;DHT22;13347;50.984;5.822;2023-05-10T01:19:46;13.50;99.90
24446;DHT22;13347;50.984;5.822;2023-05-10T01:22:17;13.50;99.90
24446;DHT22;13347;50.984;5.822;2023-05-10T01:27:51;13.40;99.90
24446;DHT22;13347;50.984;5.822;2023-05-10T01:33:07;13.40;99.90
24446;DHT22;13347;50.984;5.822;2023-05-10T01:35:37;13.40;99.90
24446;DHT22;13347;50.984;5.822;2023-05-10T01:38:07;13.40;99.90
24446;DHT22;13347;50.984;5.822;2023-05-10T01:40:37;13.30;99.90
24446;DHT22;13347;50.984;5.822;2023-05-10T01:43:07;13.40;99.90
24446;DHT22;13347;50.984;5.822;2023-05-10T01:45:37;13.40;99.90
24446;DHT22;13347;50.984;5.822;2023-05-10T01:48:06;13.30;99.90
24446;DHT22;13347;50.984;5.822;2023-05-10T01:50:35;13.30;99.90
24446;DHT22;13347;50.984;5.822;2023-05-10T01:53:02;13.30;99.90
24446;DHT22;13347;50.984;5.822;2023-05-10T01:55:32;13.30;99.90
24446;DHT22;13347;50.984;5.822;2023-05-10T01:58:01;13.20;99.90
24446;DHT22;13347;50.984;5.822;2023-05-10T02:00:28;13.30;99.90
24446;DHT22;13347;50.984;5.822;2023-05-10T02:02:56;13.30;99.90
24446;DHT22;13347;50.984;5.822;2023-05-10T02:05:25;13.30;99.90
24446;DHT22;13347;50.984;5.822;2023-05-10T02:07:53;13.30;99.90
24446;DHT22;13347;50.984;5.822;2023-05-10T02:10:20;13.30;99.90
24446;DHT22;13347;50.984;5.822;2023-05-10T02:12:47;13.20;99.90
24446;DHT22;13347;50.984;5.822;2023-05-10T02:15:16;13.20;99.90
24446;DHT22;13347;50.984;5.822;2023-05-10T02:17:44;13.20;99.90
24446;DHT22;13347;50.984;5.822;2023-05-10T02:20:12;13.20;99.90
24446;DHT22;13347;50.984;5.822;2023-05-10T02:22:41;13.20;99.90
24446;DHT22;13347;50.984;5.822;2023-05-10T02:25:09;13.20;99.90
24446;DHT22;13347;50.984;5.822;2023-05-10T02:27:38;13.20;99.90
24446;DHT22;13347;50.984;5.822;2023-05-10T02:30:05;13.10;99.90
24446;DHT22;13347;50.984;5.822;2023-05-10T02:32:33;13.10;99.90
24446;DHT22;13347;50.984;5.822;2023-05-10T02:35:01;13.10;99.90
24446;DHT22;13347;50.984;5.822;2023-05-10T02:37:28;13.20;99.90
24446;DHT22;13347;50.984;5.822;2023-05-10T02:39:56;13.10;99.90
24446;DHT22;13347;50.984;5.822;2023-05-10T02:42:25;13.10;99.90
24446;DHT22;13347;50.984;5.822;2023-05-10T02:44:53;13.10;99.90
24446;DHT22;13347;50.984;5.822;2023-05-10T02:47:20;13.10;99.90
24446;DHT22;13347;50.984;5.822;2023-05-10T02:49:47;13.00;99.90
24446;DHT22;13347;50.984;5.822;2023-05-10T02:52:15;13.00;99.90
24446;DHT22;13347;50.984;5.822;2023-05-10T02:54:43;12.90;99.90
24446;DHT22;13347;50.984;5.822;2023-05-10T02:57:15;13.00;99.90
24446;DHT22;13347;50.984;5.822;2023-05-10T02:59:44;12.90;99.90
24446;DHT22;13347;50.984;5.822;2023-05-10T03:02:12;12.90;99.90
24446;DHT22;13347;50.984;5.822;2023-05-10T03:04:39;12.90;99.90
24446;DHT22;13347;50.984;5.822;2023-05-10T03:07:05;13.00;99.90
24446;DHT22;13347;50.984;5.822;2023-05-10T03:09:33;12.90;99.90
24446;DHT22;13347;50.984;5.822;2023-05-10T03:12:01;12.90;99.90
24446;DHT22;13347;50.984;5.822;2023-05-10T03:14:34;12.90;99.90
24446;DHT22;13347;50.984;5.822;2023-05-10T03:17:06;13.00;99.90
24446;DHT22;13347;50.984;5.822;2023-05-10T03:19:45;13.00;99.90
24446;DHT22;13347;50.984;5.822;2023-05-10T03:22:16;13.00;99.90
24446;DHT22;13347;50.984;5.822;2023-05-10T03:24:47;13.00;99.90
24446;DHT22;13347;50.984;5.822;2023-05-10T03:27:15;13.00;99.90
24446;DHT22;13347;50.984;5.822;2023-05-10T03:29:44;13.00;99.90
24446;DHT22;13347;50.984;5.822;2023-05-10T03:32:12;13.00;99.90
24446;DHT22;13347;50.984;5.822;2023-05-10T03:34:41;13.00;99.90
24446;DHT22;13347;50.984;5.822;2023-05-10T03:37:08;13.00;99.90
24446;DHT22;13347;50.984;5.822;2023-05-10T03:39:34;13.00;99.90
24446;DHT22;13347;50.984;5.822;2023-05-10T03:42:01;13.00;99.90
24446;DHT22;13347;50.984;5.822;2023-05-10T03:44:28;13.00;99.90
24446;DHT22;13347;50.984;5.822;2023-05-10T03:46:56;13.00;99.90
24446;DHT22;13347;50.984;5.822;2023-05-10T03:49:23;13.00;99.90
24446;DHT22;13347;50.984;5.822;2023-05-10T03:51:50;13.00;99.90
24446;DHT22;13347;50.984;5.822;2023-05-10T03:54:17;13.00;99.90
24446;DHT22;13347;50.984;5.822;2023-05-10T03:56:44;13.00;99.90
24446;DHT22;13347;50.984;5.822;2023-05-10T03:59:13;13.00;99.90
24446;DHT22;13347;50.984;5.822;2023-05-10T04:01:40;13.00;99.90
24446;DHT22;13347;50.984;5.822;2023-05-10T04:04:08;12.90;99.90
24446;DHT22;13347;50.984;5.822;2023-05-10T04:06:35;12.90;99.90
24446;DHT22;13347;50.984;5.822;2023-05-10T04:09:02;12.90;99.90
24446;DHT22;13347;50.984;5.822;2023-05-10T04:11:30;13.00;99.90
24446;DHT22;13347;50.984;5.822;2023-05-10T04:13:56;12.90;99.90
24446;DHT22;13347;50.984;5.822;2023-05-10T04:16:23;12.90;99.90
24446;DHT22;13347;50.984;5.822;2023-05-10T04:18:50;12.90;99.90
24446;DHT22;13347;50.984;5.822;2023-05-10T04:21:18;13.00;99.90
24446;DHT22;13347;50.984;5.822;2023-05-10T04:23:45;13.00;99.90
24446;DHT22;13347;50.984;5.822;2023-05-10T04:26:12;13.00;99.90
24446;DHT22;13347;50.984;5.822;2023-05-10T04:28:39;13.00;99.90
24446;DHT22;13347;50.984;5.822;2023-05-10T04:31:06;13.00;99.90
24446;DHT22;13347;50.984;5.822;2023-05-10T04:33:33;13.00;99.90
24446;DHT22;13347;50.984;5.822;2023-05-10T04:36:00;13.00;99.90
24446;DHT22;13347;50.984;5.822;2023-05-10T04:38:29;13.00;99.90
24446;DHT22;13347;50.984;5.822;2023-05-10T04:41:03;13.00;99.90
24446;DHT22;13347;50.984;5.822;2023-05-10T04:43:30;13.00;99.90
24446;DHT22;13347;50.984;5.822;2023-05-10T04:45:57;13.00;99.90
24446;DHT22;13347;50.984;5.822;2023-05-10T04:48:23;13.00;99.90
24446;DHT22;13347;50.984;5.822;2023-05-10T04:50:50;13.00;99.90
24446;DHT22;13347;50.984;5.822;2023-05-10T04:53:17;13.10;99.90
24446;DHT22;13347;50.984;5.822;2023-05-10T04:55:46;13.00;99.90
24446;DHT22;13347;50.984;5.822;2023-05-10T04:58:13;13.10;99.90
24446;DHT22;13347;50.984;5.822;2023-05-10T05:00:40;13.00;99.90
24446;DHT22;13347;50.984;5.822;2023-05-10T05:03:07;13.00;99.90
24446;DHT22;13347;50.984;5.822;2023-05-10T05:05:34;13.00;99.90
24446;DHT22;13347;50.984;5.822;2023-05-10T05:08:01;13.00;99.90
24446;DHT22;13347;50.984;5.822;2023-05-10T05:10:27;13.10;99.90
24446;DHT22;13347;50.984;5.822;2023-05-10T05:12:56;13.10;99.90
24446;DHT22;13347;50.984;5.822;2023-05-10T05:15:23;13.20;99.90
24446;DHT22;13347;50.984;5.822;2023-05-10T05:17:50;13.20;99.90
24446;DHT22;13347;50.984;5.822;2023-05-10T05:20:17;13.30;99.90
24446;DHT22;13347;50.984;5.822;2023-05-10T05:22:44;13.30;99.90
24446;DHT22;13347;50.984;5.822;2023-05-10T05:25:11;13.30;99.90
24446;DHT22;13347;50.984;5.822;2023-05-10T05:27:38;13.30;99.90
24446;DHT22;13347;50.984;5.822;2023-05-10T05:30:08;13.30;99.90
24446;DHT22;13347;50.984;5.822;2023-05-10T05:32:35;13.20;99.90
24446;DHT22;13347;50.984;5.822;2023-05-10T05:35:02;13.20;99.90
24446;DHT22;13347;50.984;5.822;2023-05-10T05:37:29;13.20;99.90
24446;DHT22;13347;50.984;5.822;2023-05-10T05:39:55;13.30;99.90
24446;DHT22;13347;50.984;5.822;2023-05-10T05:42:22;13.20;99.90
24446;DHT22;13347;50.984;5.822;2023-05-10T05:44:49;13.20;99.90
24446;DHT22;13347;50.984;5.822;2023-05-10T05:47:17;13.40;99.90
24446;DHT22;13347;50.984;5.822;2023-05-10T05:49:44;13.40;99.90
24446;DHT22;13347;50.984;5.822;2023-05-10T05:52:11;13.30;99.90
24446;DHT22;13347;50.984;5.822;2023-05-10T05:54:38;13.30;99.90
24446;DHT22;13347;50.984;5.822;2023-05-10T05:57:05;13.30;99.90
24446;DHT22;13347;50.984;5.822;2023-05-10T05:59:32;13.40;99.90
24446;DHT22;13347;50.984;5.822;2023-05-10T06:01:59;13.40;99.90
24446;DHT22;13347;50.984;5.822;2023-05-10T06:04:28;13.50;99.90
24446;DHT22;13347;50.984;5.822;2023-05-10T06:06:55;13.50;99.90
24446;DHT22;13347;50.984;5.822;2023-05-10T06:09:21;13.50;99.90
24446;DHT22;13347;50.984;5.822;2023-05-10T06:11:49;13.50;99.90
24446;DHT22;13347;50.984;5.822;2023-05-10T06:14:16;13.60;99.90
24446;DHT22;13347;50.984;5.822;2023-05-10T06:16:43;13.60;99.90
24446;DHT22;13347;50.984;5.822;2023-05-10T06:19:10;13.70;99.90
24446;DHT22;13347;50.984;5.822;2023-05-10T06:21:39;13.70;99.90
24446;DHT22;13347;50.984;5.822;2023-05-10T06:24:06;13.60;99.90
24446;DHT22;13347;50.984;5.822;2023-05-10T06:26:33;13.50;99.90
24446;DHT22;13347;50.984;5.822;2023-05-10T06:29:00;13.50;99.90
24446;DHT22;13347;50.984;5.822;2023-05-10T06:31:27;13.60;99.90
24446;DHT22;13347;50.984;5.822;2023-05-10T06:33:54;13.60;99.90
24446;DHT22;13347;50.984;5.822;2023-05-10T06:36:20;13.50;99.90
24446;DHT22;13347;50.984;5.822;2023-05-10T06:38:50;13.40;99.90
24446;DHT22;13347;50.984;5.822;2023-05-10T06:41:17;13.30;99.90
24446;DHT22;13347;50.984;5.822;2023-05-10T06:43:44;13.30;99.90
24446;DHT22;13347;50.984;5.822;2023-05-10T06:46:11;13.30;99.90
24446;DHT22;13347;50.984;5.822;2023-05-10T06:48:38;13.40;99.90
24446;DHT22;13347;50.984;5.822;2023-05-10T06:51:05;13.50;99.90
24446;DHT22;13347;50.984;5.822;2023-05-10T06:53:32;13.50;99.90
24446;DHT22;13347;50.984;5.822;2023-05-10T06:56:00;13.50;99.90
24446;DHT22;13347;50.984;5.822;2023-05-10T06:58:28;13.60;99.90
24446;DHT22;13347;50.984;5.822;2023-05-10T07:01:01;13.50;99.90
24446;DHT22;13347;50.984;5.822;2023-05-10T07:03:28;13.60;99.90
24446;DHT22;13347;50.984;5.822;2023-05-10T07:05:59;13.70;99.90
24446;DHT22;13347;50.984;5.822;2023-05-10T07:08:28;13.70;99.90
24446;DHT22;13347;50.984;5.822;2023-05-10T07:10:59;13.70;99.90
24446;DHT22;13347;50.984;5.822;2023-05-10T07:13:27;13.60;99.90
24446;DHT22;13347;50.984;5.822;2023-05-10T07:15:54;13.60;99.90
24446;DHT22;13347;50.984;5.822;2023-05-10T07:18:21;13.70;99.90
24446;DHT22;13347;50.984;5.822;2023-05-10T07:20:48;13.70;99.90
24446;DHT22;13347;50.984;5.822;2023-05-10T07:23:15;13.60;99.90
24446;DHT22;13347;50.984;5.822;2023-05-10T07:25:44;13.40;99.90
24446;DHT22;13347;50.984;5.822;2023-05-10T07:28:11;13.30;99.90
24446;DHT22;13347;50.984;5.822;2023-05-10T07:30:40;13.30;99.90
24446;DHT22;13347;50.984;5.822;2023-05-10T07:33:07;13.30;99.90
24446;DHT22;13347;50.984;5.822;2023-05-10T07:35:34;13.40;99.90
24446;DHT22;13347;50.984;5.822;2023-05-10T07:38:01;13.40;99.90
24446;DHT22;13347;50.984;5.822;2023-05-10T07:40:28;13.40;99.90
24446;DHT22;13347;50.984;5.822;2023-05-10T07:42:55;13.50;99.90
24446;DHT22;13347;50.984;5.822;2023-05-10T07:45:22;13.40;99.90
24446;DHT22;13347;50.984;5.822;2023-05-10T07:47:51;13.40;99.90
24446;DHT22;13347;50.984;5.822;2023-05-10T07:50:18;13.50;99.90
24446;DHT22;13347;50.984;5.822;2023-05-10T07:52:46;13.30;99.90
24446;DHT22;13347;50.984;5.822;2023-05-10T07:55:13;13.40;99.90
24446;DHT22;13347;50.984;5.822;2023-05-10T07:57:40;13.30;99.90
24446;DHT22;13347;50.984;5.822;2023-05-10T08:00:07;13.50;99.90
24446;DHT22;13347;50.984;5.822;2023-05-10T08:02:35;13.50;99.90
24446;DHT22;13347;50.984;5.822;2023-05-10T08:05:03;13.60;99.90
24446;DHT22;13347;50.984;5.822;2023-05-10T08:07:30;13.70;99.90
24446;DHT22;13347;50.984;5.822;2023-05-10T08:09:57;13.90;99.90
24446;DHT22;13347;50.984;5.822;2023-05-10T08:12:24;13.90;99.90
24446;DHT22;13347;50.984;5.822;2023-05-10T08:14:51;14.00;99.90
24446;DHT22;13347;50.984;5.822;2023-05-10T08:17:18;14.00;99.90
24446;DHT22;13347;50.984;5.822;2023-05-10T08:19:45;14.10;99.90
24446;DHT22;13347;50.984;5.822;2023-05-10T08:22:13;14.20;99.90
24446;DHT22;13347;50.984;5.822;2023-05-10T08:24:41;14.50;99.90
24446;DHT22;13347;50.984;5.822;2023-05-10T08:27:08;14.50;99.90
24446;DHT22;13347;50.984;5.822;2023-05-10T08:29:35;14.60;99.90
24446;DHT22;13347;50.984;5.822;2023-05-10T08:32:02;14.50;99.90
24446;DHT22;13347;50.984;5.822;2023-05-10T08:34:28;14.40;99.90
24446;DHT22;13347;50.984;5.822;2023-05-10T08:36:56;14.50;99.90
24446;DHT22;13347;50.984;5.822;2023-05-10T08:39:24;14.60;99.90
24446;DHT22;13347;50.984;5.822;2023-05-10T08:41:51;14.70;99.90
24446;DHT22;13347;50.984;5.822;2023-05-10T08:44:20;14.60;99.90
24446;DHT22;13347;50.984;5.822;2023-05-10T08:46:47;14.70;99.90
24446;DHT22;13347;50.984;5.822;2023-05-10T08:49:17;14.80;99.90
24446;DHT22;13347;50.984;5.822;2023-05-10T08:51:49;14.90;99.90
24446;DHT22;13347;50.984;5.822;2023-05-10T08:54:16;14.90;99.90
24446;DHT22;13347;50.984;5.822;2023-05-10T08:56:45;14.70;99.90
24446;DHT22;13347;50.984;5.822;2023-05-10T08:59:13;14.80;99.90
24446;DHT22;13347;50.984;5.822;2023-05-10T09:01:40;14.70;99.90
24446;DHT22;13347;50.984;5.822;2023-05-10T09:04:09;14.70;99.90
24446;DHT22;13347;50.984;5.822;2023-05-10T09:06:37;14.70;99.90
24446;DHT22;13347;50.984;5.822;2023-05-10T09:09:04;14.70;99.90
24446;DHT22;13347;50.984;5.822;2023-05-10T09:11:31;14.60;99.90
24446;DHT22;13347;50.984;5.822;2023-05-10T09:14:00;14.50;99.90
24446;DHT22;13347;50.984;5.822;2023-05-10T09:16:27;14.70;99.90
24446;DHT22;13347;50.984;5.822;2023-05-10T09:18:54;14.50;99.90
24446;DHT22;13347;50.984;5.822;2023-05-10T09:21:21;14.60;99.90
24446;DHT22;13347;50.984;5.822;2023-05-10T09:23:48;14.50;99.90
24446;DHT22;13347;50.984;5.822;2023-05-10T09:26:21;14.30;99.90
24446;DHT22;13347;50.984;5.822;2023-05-10T09:28:52;14.10;99.90
24446;DHT22;13347;50.984;5.822;2023-05-10T09:31:21;14.00;99.90
24446;DHT22;13347;50.984;5.822;2023-05-10T09:33:49;14.10;99.90
24446;DHT22;13347;50.984;5.822;2023-05-10T09:36:16;14.00;99.90
24446;DHT22;13347;50.984;5.822;2023-05-10T09:38:46;14.20;99.90
24446;DHT22;13347;50.984;5.822;2023-05-10T09:41:17;14.30;99.90
24446;DHT22;13347;50.984;5.822;2023-05-10T09:43:44;14.70;99.90
24446;DHT22;13347;50.984;5.822;2023-05-10T09:46:11;14.90;99.90
24446;DHT22;13347;50.984;5.822;2023-05-10T09:48:41;14.60;99.90
24446;DHT22;13347;50.984;5.822;2023-05-10T09:51:08;14.50;99.90
24446;DHT22;13347;50.984;5.822;2023-05-10T09:53:35;14.60;99.90
24446;DHT22;13347;50.984;5.822;2023-05-10T09:56:02;14.70;99.90
24446;DHT22;13347;50.984;5.822;2023-05-10T09:58:29;14.60;99.90
24446;DHT22;13347;50.984;5.822;2023-05-10T10:00:56;14.60;99.90
24446;DHT22;13347;50.984;5.822;2023-05-10T10:03:23;15.00;99.90
24446;DHT22;13347;50.984;5.822;2023-05-10T10:05:52;15.20;99.90
24446;DHT22;13347;50.984;5.822;2023-05-10T10:08:21;15.60;99.90
24446;DHT22;13347;50.984;5.822;2023-05-10T10:10:48;15.80;99.90
24446;DHT22;13347;50.984;5.822;2023-05-10T10:13:15;16.10;99.90
24446;DHT22;13347;50.984;5.822;2023-05-10T10:15:42;16.20;15.40
24446;DHT22;13347;50.984;5.822;2023-05-10T10:18:12;16.20;1.00
24446;DHT22;13347;50.984;5.822;2023-05-10T10:20:39;16.40;1.00
24446;DHT22;13347;50.984;5.822;2023-05-10T10:23:09;16.40;1.00
24446;DHT22;13347;50.984;5.822;2023-05-10T10:25:36;16.60;99.90
24446;DHT22;13347;50.984;5.822;2023-05-10T10:28:08;16.70;99.90
24446;DHT22;13347;50.984;5.822;2023-05-10T10:30:39;16.60;1.00
24446;DHT22;13347;50.984;5.822;2023-05-10T10:33:13;16.70;1.00
24446;DHT22;13347;50.984;5.822;2023-05-10T10:35:44;16.50;99.90
24446;DHT22;13347;50.984;5.822;2023-05-10T10:38:13;16.40;99.90
24446;DHT22;13347;50.984;5.822;2023-05-10T10:40:40;16.10;99.90
24446;DHT22;13347;50.984;5.822;2023-05-10T10:48:31;15.70;1.00
24446;DHT22;13347;50.984;5.822;2023-05-10T10:50:58;16.10;1.00
24446;DHT22;13347;50.984;5.822;2023-05-10T10:53:27;16.20;1.00
24446;DHT22;13347;50.984;5.822;2023-05-10T10:56:02;16.30;69.50
24446;DHT22;13347;50.984;5.822;2023-05-10T10:58:31;16.40;1.00
24446;DHT22;13347;50.984;5.822;2023-05-10T11:01:12;16.80;1.00
24446;DHT22;13347;50.984;5.822;2023-05-10T11:03:41;16.60;99.90
24446;DHT22;13347;50.984;5.822;2023-05-10T11:06:28;16.70;1.00
24446;DHT22;13347;50.984;5.822;2023-05-10T11:08:57;16.50;99.90
24446;DHT22;13347;50.984;5.822;2023-05-10T11:11:24;16.50;74.50
24446;DHT22;13347;50.984;5.822;2023-05-10T11:13:50;16.60;19.50
24446;DHT22;13347;50.984;5.822;2023-05-10T11:16:18;16.70;1.00
24446;DHT22;13347;50.984;5.822;2023-05-10T11:18:52;16.50;1.00
24446;DHT22;13347;50.984;5.822;2023-05-10T11:21:19;16.50;1.00
24446;DHT22;13347;50.984;5.822;2023-05-10T11:23:49;16.70;1.00
24446;DHT22;13347;50.984;5.822;2023-05-10T11:26:18;17.10;1.00
24446;DHT22;13347;50.984;5.822;2023-05-10T11:28:48;17.30;1.00
24446;DHT22;13347;50.984;5.822;2023-05-10T11:31:16;17.80;99.90
24446;DHT22;13347;50.984;5.822;2023-05-10T11:33:43;18.00;99.90
24446;DHT22;13347;50.984;5.822;2023-05-10T11:36:11;17.90;99.90
24446;DHT22;13347;50.984;5.822;2023-05-10T11:38:37;17.80;1.00
24446;DHT22;13347;50.984;5.822;2023-05-10T11:41:04;17.80;1.00
24446;DHT22;13347;50.984;5.822;2023-05-10T11:43:33;17.80;1.00
24446;DHT22;13347;50.984;5.822;2023-05-10T11:46:02;17.50;1.00
24446;DHT22;13347;50.984;5.822;2023-05-10T11:48:29;17.80;1.00
24446;DHT22;13347;50.984;5.822;2023-05-10T11:50:56;17.90;1.00
24446;DHT22;13347;50.984;5.822;2023-05-10T11:53:25;17.90;1.00
24446;DHT22;13347;50.984;5.822;2023-05-10T11:55:52;17.90;1.00
24446;DHT22;13347;50.984;5.822;2023-05-10T11:58:19;17.70;1.00
24446;DHT22;13347;50.984;5.822;2023-05-10T12:00:49;17.60;1.00
24446;DHT22;13347;50.984;5.822;2023-05-10T12:03:16;17.60;1.00
24446;DHT22;13347;50.984;5.822;2023-05-10T12:05:43;17.80;1.00
24446;DHT22;13347;50.984;5.822;2023-05-10T12:08:10;18.10;1.00
24446;DHT22;13347;50.984;5.822;2023-05-10T12:10:38;18.30;1.00
24446;DHT22;13347;50.984;5.822;2023-05-10T12:13:05;17.60;1.00
24446;DHT22;13347;50.984;5.822;2023-05-10T12:15:34;17.10;1.00
24446;DHT22;13347;50.984;5.822;2023-05-10T12:18:03;17.10;1.00
24446;DHT22;13347;50.984;5.822;2023-05-10T12:20:30;17.60;1.00
24446;DHT22;13347;50.984;5.822;2023-05-10T12:22:58;17.60;1.00
24446;DHT22;13347;50.984;5.822;2023-05-10T12:25:29;17.40;99.90
24446;DHT22;13347;50.984;5.822;2023-05-10T12:27:57;17.30;99.90
24446;DHT22;13347;50.984;5.822;2023-05-10T12:30:26;17.20;1.00
24446;DHT22;13347;50.984;5.822;2023-05-10T12:32:54;17.40;1.00
24446;DHT22;13347;50.984;5.822;2023-05-10T12:35:27;17.60;1.00
24446;DHT22;13347;50.984;5.822;2023-05-10T12:37:56;17.80;99.90
24446;DHT22;13347;50.984;5.822;2023-05-10T12:40:23;18.00;99.90
24446;DHT22;13347;50.984;5.822;2023-05-10T12:42:49;18.10;99.90
24446;DHT22;13347;50.984;5.822;2023-05-10T12:45:17;18.40;99.90
24446;DHT22;13347;50.984;5.822;2023-05-10T12:47:44;18.00;99.90
24446;DHT22;13347;50.984;5.822;2023-05-10T12:50:11;18.10;44.60
24446;DHT22;13347;50.984;5.822;2023-05-10T12:52:39;18.10;57.50
24446;DHT22;13347;50.984;5.822;2023-05-10T12:55:07;18.20;99.90
24446;DHT22;13347;50.984;5.822;2023-05-10T12:57:33;18.50;11.00
24446;DHT22;13347;50.984;5.822;2023-05-10T13:00:00;18.90;1.00
24446;DHT22;13347;50.984;5.822;2023-05-10T13:02:28;19.10;1.00
24446;DHT22;13347;50.984;5.822;2023-05-10T13:04:55;18.80;1.00
24446;DHT22;13347;50.984;5.822;2023-05-10T13:07:22;18.70;1.00
24446;DHT22;13347;50.984;5.822;2023-05-10T13:09:50;19.20;1.00
24446;DHT22;13347;50.984;5.822;2023-05-10T13:12:17;18.70;1.00
24446;DHT22;13347;50.984;5.822;2023-05-10T13:14:44;18.80;1.00
24446;DHT22;13347;50.984;5.822;2023-05-10T13:17:11;18.50;1.00
24446;DHT22;13347;50.984;5.822;2023-05-10T13:19:38;18.10;1.00
24446;DHT22;13347;50.984;5.822;2023-05-10T13:22:05;17.70;1.00
24446;DHT22;13347;50.984;5.822;2023-05-10T13:24:32;17.10;1.00
24446;DHT22;13347;50.984;5.822;2023-05-10T13:27:00;17.20;1.00
24446;DHT22;13347;50.984;5.822;2023-05-10T13:29:27;17.60;1.00
24446;DHT22;13347;50.984;5.822;2023-05-10T13:31:54;17.80;1.00
24446;DHT22;13347;50.984;5.822;2023-05-10T13:34:21;17.70;1.00
24446;DHT22;13347;50.984;5.822;2023-05-10T13:36:47;17.60;1.00
24446;DHT22;13347;50.984;5.822;2023-05-10T13:39:15;17.80;1.00
24446;DHT22;13347;50.984;5.822;2023-05-10T13:41:42;17.60;1.00
24446;DHT22;13347;50.984;5.822;2023-05-10T13:44:11;17.60;1.00
24446;DHT22;13347;50.984;5.822;2023-05-10T13:46:38;17.50;1.00
24446;DHT22;13347;50.984;5.822;2023-05-10T13:49:05;17.80;1.00
24446;DHT22;13347;50.984;5.822;2023-05-10T13:51:33;18.00;1.00
24446;DHT22;13347;50.984;5.822;2023-05-10T13:54:00;17.80;1.00
24446;DHT22;13347;50.984;5.822;2023-05-10T13:56:26;17.50;1.00
24446;DHT22;13347;50.984;5.822;2023-05-10T13:58:53;16.90;1.00
24446;DHT22;13347;50.984;5.822;2023-05-10T14:01:22;16.90;1.00
24446;DHT22;13347;50.984;5.822;2023-05-10T14:03:48;17.00;96.50
24446;DHT22;13347;50.984;5.822;2023-05-10T14:06:15;17.20;99.90
24446;DHT22;13347;50.984;5.822;2023-05-10T14:08:42;17.50;99.90
24446;DHT22;13347;50.984;5.822;2023-05-10T14:11:09;17.50;1.00
24446;DHT22;13347;50.984;5.822;2023-05-10T14:13:36;17.70;1.00
24446;DHT22;13347;50.984;5.822;2023-05-10T14:16:03;17.50;1.00
24446;DHT22;13347;50.984;5.822;2023-05-10T14:18:32;17.50;1.00
24446;DHT22;13347;50.984;5.822;2023-05-10T14:20:59;17.30;1.00
24446;DHT22;13347;50.984;5.822;2023-05-10T14:23:25;17.40;1.00
24446;DHT22;13347;50.984;5.822;2023-05-10T14:25:54;17.40;1.00
24446;DHT22;13347;50.984;5.822;2023-05-10T14:28:21;17.10;1.00
24446;DHT22;13347;50.984;5.822;2023-05-10T14:30:49;17.10;99.90
24446;DHT22;13347;50.984;5.822;2023-05-10T14:33:16;16.90;60.30
24446;DHT22;13347;50.984;5.822;2023-05-10T14:35:44;16.60;71.40
24446;DHT22;13347;50.984;5.822;2023-05-10T14:38:12;16.40;99.90
24446;DHT22;13347;50.984;5.822;2023-05-10T14:40:39;16.30;99.90
24446;DHT22;13347;50.984;5.822;2023-05-10T14:43:05;16.30;99.90
24446;DHT22;13347;50.984;5.822;2023-05-10T14:45:32;16.00;99.90
24446;DHT22;13347;50.984;5.822;2023-05-10T14:48:00;16.20;99.90
24446;DHT22;13347;50.984;5.822;2023-05-10T14:50:29;16.20;99.90
24446;DHT22;13347;50.984;5.822;2023-05-10T14:52:58;16.30;1.00
24446;DHT22;13347;50.984;5.822;2023-05-10T14:55:25;16.10;1.00
24446;DHT22;13347;50.984;5.822;2023-05-10T14:57:52;16.10;1.00
24446;DHT22;13347;50.984;5.822;2023-05-10T15:00:19;15.90;1.00
24446;DHT22;13347;50.984;5.822;2023-05-10T15:02:47;15.90;99.90
24446;DHT22;13347;50.984;5.822;2023-05-10T15:05:13;15.70;1.00
24446;DHT22;13347;50.984;5.822;2023-05-10T15:07:40;15.60;1.00
24446;DHT22;13347;50.984;5.822;2023-05-10T15:10:10;15.60;55.70
24446;DHT22;13347;50.984;5.822;2023-05-10T15:12:38;15.50;99.90
24446;DHT22;13347;50.984;5.822;2023-05-10T15:15:05;15.40;1.00
24446;DHT22;13347;50.984;5.822;2023-05-10T15:17:33;15.30;99.90
24446;DHT22;13347;50.984;5.822;2023-05-10T15:20:00;15.30;99.90
24446;DHT22;13347;50.984;5.822;2023-05-10T15:22:28;15.40;99.90
24446;DHT22;13347;50.984;5.822;2023-05-10T15:24:57;15.30;99.90
24446;DHT22;13347;50.984;5.822;2023-05-10T15:27:25;15.30;99.90
24446;DHT22;13347;50.984;5.822;2023-05-10T15:29:52;15.40;1.00
24446;DHT22;13347;50.984;5.822;2023-05-10T15:32:18;15.50;1.00
24446;DHT22;13347;50.984;5.822;2023-05-10T15:34:45;15.50;99.90
24446;DHT22;13347;50.984;5.822;2023-05-10T15:37:12;15.50;99.90
24446;DHT22;13347;50.984;5.822;2023-05-10T15:39:39;15.50;1.00
24446;DHT22;13347;50.984;5.822;2023-05-10T15:42:06;15.60;1.00
24446;DHT22;13347;50.984;5.822;2023-05-10T15:44:34;15.60;1.00
24446;DHT22;13347;50.984;5.822;2023-05-10T15:47:03;15.60;1.00
24446;DHT22;13347;50.984;5.822;2023-05-10T15:49:30;15.60;99.90